createdAt,value
2022-11-19T00:04:43.455Z,101596.81
2022-11-19T00:10:04.163Z,101596.94
2022-11-19T00:15:25.161Z,101609.56
2022-11-19T00:20:45.576Z,101607.13
2022-11-19T00:26:11.305Z,101613.75
2022-11-19T00:31:32.256Z,101610.31
2022-11-19T00:36:52.992Z,101599.28
2022-11-19T00:42:13.175Z,101614.97
2022-11-19T00:47:33.945Z,101609.84
2022-11-19T00:52:54.358Z,101612.97
2022-11-19T00:58:15.133Z,101616.84
2022-11-19T01:03:35.835Z,101624.44
2022-11-19T01:08:56.465Z,101627.03
2022-11-19T01:14:16.841Z,101622.72
2022-11-19T01:19:37.460Z,101636.03
2022-11-19T01:24:57.890Z,101632.53
2022-11-19T01:30:18.463Z,101643.56
2022-11-19T01:35:42.744Z,101645.22
2022-11-19T01:41:03.980Z,101636.56
2022-11-19T01:46:27.623Z,101644.94
2022-11-19T01:52:00.733Z,101650.59
2022-11-19T01:57:22.173Z,101648.75
2022-11-19T02:02:42.604Z,101642.69
2022-11-19T02:08:07.514Z,101650.16
2022-11-19T02:13:38.476Z,101646.78
2022-11-19T02:19:38.123Z,101656.63
2022-11-19T02:25:23.214Z,101660.75
2022-11-19T02:30:49.644Z,101667.44
2022-11-19T02:36:22.988Z,101666.50
2022-11-19T02:41:54.549Z,101662.16
2022-11-19T02:47:22.259Z,101673.91
2022-11-19T02:52:44.779Z,101676.41
2022-11-19T02:58:37.910Z,101678.78
2022-11-19T03:04:16.749Z,101681.25
2022-11-19T03:09:46.127Z,101670.81
2022-11-19T03:15:55.842Z,101681.75
2022-11-19T03:21:26.398Z,101679.09
2022-11-19T03:26:54.613Z,101684.13
2022-11-19T03:32:21.732Z,101687.47
2022-11-19T03:37:46.320Z,101685.78
2022-11-19T03:43:10.413Z,101685.91
2022-11-19T03:48:31.723Z,101691.78
2022-11-19T03:53:53.058Z,101689.81
2022-11-19T03:59:13.560Z,101687.28
2022-11-19T04:04:39.862Z,101691.50
2022-11-19T04:10:00.633Z,101683.91
2022-11-19T04:15:20.954Z,101689.75
2022-11-19T04:20:44.213Z,101691.41
2022-11-19T04:26:04.788Z,101704.13
2022-11-19T04:31:25.126Z,101701.63
2022-11-19T04:36:45.878Z,101699.91
2022-11-19T04:42:06.701Z,101704.06
2022-11-19T04:47:27.428Z,101703.16
2022-11-19T04:52:47.949Z,101698.88
2022-11-19T04:58:08.797Z,101703.09
2022-11-19T05:03:29.419Z,101701.38
2022-11-19T05:08:50.064Z,101711.44
2022-11-19T05:14:10.359Z,101705.44
2022-11-19T05:19:31.153Z,101709.59
2022-11-19T05:24:51.774Z,101706.00
2022-11-19T05:30:13.101Z,101704.13
2022-11-19T05:35:33.708Z,101714.91
2022-11-19T05:40:54.416Z,101716.44
2022-11-19T05:46:14.990Z,101722.09
2022-11-19T05:51:36.194Z,101737.81
2022-11-19T05:56:57.013Z,101736.91
2022-11-19T06:02:17.790Z,101733.53
2022-11-19T06:07:38.334Z,101743.53
2022-11-19T06:12:58.927Z,101743.44
2022-11-19T06:18:19.991Z,101745.88
2022-11-19T06:23:40.542Z,101744.13
2022-11-19T06:29:01.436Z,101741.53
2022-11-19T06:34:21.959Z,101743.03
2022-11-19T06:39:42.937Z,101746.31
2022-11-19T06:45:08.044Z,101757.09
2022-11-19T06:50:28.743Z,101761.25
2022-11-19T06:55:56.976Z,101751.13
2022-11-19T07:01:17.604Z,101748.91
2022-11-19T07:06:38.501Z,101753.31
2022-11-19T07:11:59.012Z,101749.16
2022-11-19T07:17:19.509Z,101748.47
2022-11-19T07:22:41.717Z,101756.34
2022-11-19T07:28:02.461Z,101745.72
2022-11-19T07:33:23.111Z,101740.84
2022-11-19T07:38:43.668Z,101751.19
2022-11-19T07:44:05.018Z,101754.16
2022-11-19T07:49:26.794Z,101758.72
2022-11-19T07:54:47.379Z,101754.00
2022-11-19T08:00:08.325Z,101762.00
2022-11-19T08:05:38.964Z,101751.28
2022-11-19T08:11:07.033Z,101752.53
2022-11-19T08:16:46.272Z,101744.56
2022-11-19T08:22:06.542Z,101735.50
2022-11-19T08:27:27.266Z,101744.91
2022-11-19T08:32:47.994Z,101742.25
2022-11-19T08:38:09.419Z,101738.38
2022-11-19T08:43:30.019Z,101740.25
2022-11-19T08:48:50.960Z,101749.72
2022-11-19T08:54:13.026Z,101746.63
2022-11-19T08:59:33.694Z,101744.28
2022-11-19T09:04:54.332Z,101743.03
2022-11-19T09:10:15.555Z,101730.69
2022-11-19T09:15:36.212Z,101727.78
2022-11-19T09:20:57.433Z,101727.41
2022-11-19T09:26:19.186Z,101732.44
2022-11-19T09:31:39.880Z,101739.34
2022-11-19T09:37:01.390Z,101743.03
2022-11-19T09:42:36.975Z,101744.59
2022-11-19T09:48:05.431Z,101740.56
2022-11-19T09:53:30.376Z,101730.94
2022-11-19T09:58:51.116Z,101722.31
2022-11-19T10:04:12.368Z,101728.38
2022-11-19T10:09:57.280Z,101719.72
2022-11-19T10:15:42.567Z,101725.34
2022-11-19T10:21:24.588Z,101710.34
2022-11-19T10:26:54.934Z,101709.03
2022-11-19T10:32:26.333Z,101691.56
2022-11-19T10:37:59.847Z,101689.34
2022-11-19T10:43:38.610Z,101679.97
2022-11-19T10:49:00.311Z,101684.13
2022-11-19T10:54:28.749Z,101673.16
2022-11-19T10:59:52.269Z,101672.38
2022-11-19T11:05:15.660Z,101665.59
2022-11-19T11:10:44.115Z,101664.69
2022-11-19T11:16:11.284Z,101661.00
2022-11-19T11:21:38.276Z,101641.59
2022-11-19T11:27:19.100Z,101640.13
2022-11-19T11:32:41.624Z,101632.84
2022-11-19T11:38:04.275Z,101634.31
2022-11-19T11:43:27.712Z,101617.03
2022-11-19T11:48:49.075Z,101623.78
2022-11-19T11:54:18.643Z,101619.50
2022-11-19T11:59:39.451Z,101622.44
2022-11-19T12:05:03.915Z,101619.44
2022-11-19T12:10:43.088Z,101622.78
2022-11-19T12:16:18.974Z,101621.81
2022-11-19T12:21:48.890Z,101636.19
2022-11-19T12:27:35.584Z,101628.91
2022-11-19T12:33:05.091Z,101628.28
2022-11-19T12:38:49.376Z,101632.66
2022-11-19T12:44:43.058Z,101628.19
2022-11-19T12:50:19.035Z,101628.13
2022-11-19T12:55:45.090Z,101621.22
2022-11-19T13:01:21.044Z,101618.59
2022-11-19T13:06:47.811Z,101598.72
2022-11-19T13:12:12.938Z,101596.91
2022-11-19T13:17:40.377Z,101586.13
2022-11-19T13:23:06.906Z,101586.22
2022-11-19T13:28:36.224Z,101582.91
2022-11-19T13:34:02.510Z,101576.88
2022-11-19T13:39:33.643Z,101579.41
2022-11-19T13:44:54.386Z,101575.88
2022-11-19T13:50:20.172Z,101574.09
2022-11-19T13:55:42.748Z,101567.09
2022-11-19T14:01:33.474Z,101564.38
2022-11-19T14:07:33.712Z,101561.72
2022-11-19T14:13:14.573Z,101547.16
2022-11-19T14:19:00.470Z,101537.69
2022-11-19T14:24:45.751Z,101534.78
2022-11-19T14:30:09.094Z,101534.59
2022-11-19T14:35:35.007Z,101538.56
2022-11-19T14:41:28.635Z,101534.16
2022-11-19T14:46:49.676Z,101532.22
2022-11-19T14:52:39.904Z,101510.84
2022-11-19T14:58:26.170Z,101518.34
2022-11-19T15:03:54.998Z,101519.13
2022-11-19T15:09:54.178Z,101517.28
2022-11-19T15:15:20.942Z,101501.09
2022-11-19T15:21:12.767Z,101508.66
2022-11-19T15:26:56.807Z,101502.56
2022-11-19T15:32:43.985Z,101495.66
2022-11-19T15:38:19.741Z,101487.13
2022-11-19T15:43:44.821Z,101483.63
2022-11-19T15:49:18.536Z,101475.94
2022-11-19T15:54:40.217Z,101477.53
2022-11-19T16:00:02.134Z,101468.88
2022-11-19T16:05:32.663Z,101471.34
2022-11-19T16:11:17.306Z,101478.00
2022-11-19T16:16:59.207Z,101481.31
2022-11-19T16:22:20.955Z,101464.28
2022-11-19T16:27:45.124Z,101472.81
2022-11-19T16:33:06.018Z,101472.88
2022-11-19T16:38:28.779Z,101469.47
2022-11-19T16:43:50.131Z,101466.06
2022-11-19T16:49:32.691Z,101457.56
2022-11-19T16:54:53.179Z,101450.81
2022-11-19T17:00:18.118Z,101449.94
2022-11-19T17:05:46.106Z,101440.63
2022-11-19T17:11:37.737Z,101447.41
2022-11-19T17:16:58.304Z,101440.59
2022-11-19T17:22:23.103Z,101434.56
2022-11-19T17:27:44.172Z,101443.84
2022-11-19T17:33:05.330Z,101439.66
2022-11-19T17:38:29.282Z,101445.66
2022-11-19T17:44:08.129Z,101444.94
2022-11-19T17:49:29.511Z,101435.72
2022-11-19T17:54:51.182Z,101433.19
2022-11-19T18:00:12.092Z,101435.75
2022-11-19T18:05:36.448Z,101429.78
2022-11-19T18:10:56.874Z,101426.38
2022-11-19T18:24:33.567Z,101435.66
2022-11-19T18:29:54.227Z,101429.75
2022-11-19T18:35:18.319Z,101433.13
2022-11-19T18:40:39.041Z,101438.13
2022-11-19T18:45:59.852Z,101440.69
2022-11-19T18:51:21.321Z,101441.56
2022-11-19T18:56:42.043Z,101427.16
2022-11-19T19:02:02.571Z,101433.06
2022-11-19T19:07:23.130Z,101427.22
2022-11-19T19:12:43.482Z,101426.31
2022-11-19T19:18:07.773Z,101429.69
2022-11-19T19:23:28.890Z,101428.78
2022-11-19T19:28:52.168Z,101418.56
2022-11-19T19:34:12.841Z,101411.78
2022-11-19T19:39:33.285Z,101407.53
2022-11-19T19:44:53.938Z,101415.97
2022-11-19T19:50:14.730Z,101416.78
2022-11-19T19:55:35.340Z,101412.53
2022-11-19T20:01:02.290Z,101413.25
2022-11-19T20:06:23.660Z,101405.69
2022-11-19T20:11:44.335Z,101401.47
2022-11-19T20:17:04.817Z,101406.50
2022-11-19T20:22:25.001Z,101395.44
2022-11-19T20:27:45.847Z,101397.91
2022-11-19T20:33:06.566Z,101402.06
2022-11-19T20:38:27.360Z,101403.75
2022-11-19T20:44:06.765Z,101382.63
2022-11-19T20:49:29.576Z,101383.59
2022-11-19T20:54:51.414Z,101376.94
2022-11-19T21:00:12.841Z,101380.38
2022-11-19T21:05:33.592Z,101381.25
2022-11-19T21:11:00.028Z,101372.81
2022-11-19T21:16:21.883Z,101367.81
2022-11-19T21:21:44.113Z,101364.44
2022-11-19T21:27:04.462Z,101368.69
2022-11-19T21:32:24.985Z,101353.44
2022-11-19T21:37:45.428Z,101353.44
2022-11-19T21:43:07.487Z,101349.22
2022-11-19T21:48:27.931Z,101348.38
2022-11-19T21:53:48.749Z,101338.13
2022-11-19T21:59:09.305Z,101337.16
2022-11-19T22:04:29.952Z,101337.00
2022-11-19T22:09:50.637Z,101333.44
2022-11-19T22:15:12.180Z,101326.47
2022-11-19T22:20:32.745Z,101329.69
2022-11-19T22:25:53.513Z,101322.88
2022-11-19T22:31:15.481Z,101322.81
2022-11-19T22:36:35.980Z,101309.25
2022-11-19T22:41:56.623Z,101305.06
2022-11-19T22:47:17.394Z,101301.75
2022-11-19T22:52:38.403Z,101300.06
2022-11-19T22:57:58.762Z,101305.19
2022-11-19T23:03:19.754Z,101306.97
2022-11-19T23:08:40.578Z,101295.19
2022-11-19T23:14:01.385Z,101293.53
2022-11-19T23:19:22.356Z,101297.81
2022-11-19T23:24:43.615Z,101296.16
2022-11-19T23:30:04.960Z,101296.22
2022-11-19T23:35:28.865Z,101287.84
2022-11-19T23:40:57.440Z,101282.78
2022-11-19T23:46:21.052Z,101276.88
2022-11-19T23:51:41.882Z,101276.88
2022-11-19T23:57:03.640Z,101274.34
